This is the latest recevied weather packets stored in our database for station/object OK3MS-5. If no packets are shown the sender has not sent any weather packets the latest 10 day(s).
| Time | Temp. | Humidity | Pressure | Rain* | Wind** | Luminosity | Snow |
|---|---|---|---|---|---|---|---|
| 1787403003 | 16.11° C | 77% | 1016.4 hPa | 0 mm | - | 112 W/m² | - |
| 1787402707 | 17.22° C | 73% | 1016.2 hPa | 0 mm | - | 124 W/m² | - |
| 1787402402 | 17.22° C | 71% | 1015.9 hPa | 0 mm | - | 659 W/m² | - |
| 1787402102 | 17.78° C | 71% | 1015.7 hPa | 0 mm | - | 561 W/m² | - |
| 1787401804 | 18.33° C | 68% | 1015.5 hPa | 0 mm | - | 169 W/m² | - |
| 1787401505 | 19.44° C | 63% | 1015 hPa | 0 mm | - | 318 W/m² | - |
| 1787401203 | 20.56° C | 57% | 1014.7 hPa | 0 mm | - | 808 W/m² | - |
| 1787400905 | 20.56° C | 56% | 1014.6 hPa | 0 mm | - | 807 W/m² | - |
| 1787400603 | 20° C | 57% | 1014.6 hPa | 0 mm | - | 748 W/m² | - |
| 1787400305 | 20° C | 58% | 1014.8 hPa | 0 mm | - | 332 W/m² | - |
| 1787400002 | 19.44° C | 59% | 1014.8 hPa | 0 mm | - | 266 W/m² | - |
| 1787399703 | 19.44° C | 59% | 1014.8 hPa | 0 mm | - | 914 W/m² | - |
| 1787399404 | 20° C | 58% | 1014.7 hPa | 0 mm | - | 796 W/m² | - |
| 1787399103 | 19.44° C | 59% | 1014.8 hPa | 0 mm | - | 726 W/m² | - |
| 1787398805 | 19.44° C | 61% | 1014.8 hPa | 0 mm | - | 765 W/m² | - |
| 1787398502 | 19.44° C | 59% | 1014.8 hPa | 0 mm | - | 807 W/m² | - |
| 1787398203 | 19.44° C | 61% | 1014.8 hPa | 0 mm | - | 745 W/m² | - |
| 1787397903 | 18.89° C | 62% | 1015 hPa | 0 mm | - | 781 W/m² | - |
| 1787397605 | 18.33° C | 61% | 1015.1 hPa | 0 mm | - | 890 W/m² | - |
| 1787397302 | 18.89° C | 61% | 1015 hPa | 0 mm | - | 271 W/m² | - |
| 1787397002 | 18.89° C | 63% | 1014.9 hPa | 0 mm | - | 735 W/m² | - |
| 1787396702 | 19.44° C | 61% | 1014.8 hPa | 0 mm | - | 939 W/m² | - |
| 1787396404 | 18.89° C | 60% | 1014.8 hPa | 0 mm | - | 460 W/m² | - |
| 1787396104 | 18.33° C | 61% | 1014.7 hPa | 0 mm | - | 821 W/m² | - |
| 1787395804 | 18.33° C | 62% | 1014.7 hPa | 0 mm | - | 206 W/m² | - |
* Rain latest hour (hover to see other rain measurements)
** Current wind speed in m/s (hover to see current wind gust speed)